sensor_id;sensor_type;location;lat;lon;timestamp;P1;durP1;ratioP1;P2;durP2;ratioP2
37323;SDS011;23205;49.986;18.950;2022-10-16T00:04:35;27.67;;;14.55;;
37323;SDS011;23205;49.986;18.950;2022-10-16T00:09:36;28.85;;;14.43;;
37323;SDS011;23205;49.986;18.950;2022-10-16T00:14:36;28.38;;;14.80;;
37323;SDS011;23205;49.986;18.950;2022-10-16T00:19:37;26.98;;;14.30;;
37323;SDS011;23205;49.986;18.950;2022-10-16T00:24:38;32.72;;;16.48;;
37323;SDS011;23205;49.986;18.950;2022-10-16T00:29:38;49.80;;;24.55;;
37323;SDS011;23205;49.986;18.950;2022-10-16T00:34:39;67.45;;;32.47;;
37323;SDS011;23205;49.986;18.950;2022-10-16T00:39:41;33.08;;;16.70;;
37323;SDS011;23205;49.986;18.950;2022-10-16T00:44:43;26.20;;;13.85;;
37323;SDS011;23205;49.986;18.950;2022-10-16T00:49:44;31.38;;;16.95;;
37323;SDS011;23205;49.986;18.950;2022-10-16T00:54:46;33.28;;;17.92;;
37323;SDS011;23205;49.986;18.950;2022-10-16T00:59:48;33.50;;;17.08;;
37323;SDS011;23205;49.986;18.950;2022-10-16T01:04:50;32.35;;;17.20;;
37323;SDS011;23205;49.986;18.950;2022-10-16T01:10:07;30.95;;;16.45;;
37323;SDS011;23205;49.986;18.950;2022-10-16T01:20:56;28.42;;;14.85;;
37323;SDS011;23205;49.986;18.950;2022-10-16T01:26:04;27.20;;;12.15;;
37323;SDS011;23205;49.986;18.950;2022-10-16T01:31:31;27.95;;;13.65;;
37323;SDS011;23205;49.986;18.950;2022-10-16T01:36:36;32.63;;;14.50;;
37323;SDS011;23205;49.986;18.950;2022-10-16T01:41:44;25.73;;;13.65;;
37323;SDS011;23205;49.986;18.950;2022-10-16T01:47:01;26.80;;;16.17;;
37323;SDS011;23205;49.986;18.950;2022-10-16T01:52:04;23.30;;;13.73;;
37323;SDS011;23205;49.986;18.950;2022-10-16T01:57:09;25.75;;;11.85;;
37323;SDS011;23205;49.986;18.950;2022-10-16T02:02:11;24.02;;;13.07;;
37323;SDS011;23205;49.986;18.950;2022-10-16T02:07:14;25.88;;;13.95;;
37323;SDS011;23205;49.986;18.950;2022-10-16T02:12:23;33.20;;;17.10;;
37323;SDS011;23205;49.986;18.950;2022-10-16T02:17:27;30.92;;;17.70;;
37323;SDS011;23205;49.986;18.950;2022-10-16T02:22:30;36.22;;;20.02;;
37323;SDS011;23205;49.986;18.950;2022-10-16T02:27:55;33.63;;;17.92;;
37323;SDS011;23205;49.986;18.950;2022-10-16T02:33:02;37.53;;;20.55;;
37323;SDS011;23205;49.986;18.950;2022-10-16T02:38:07;43.83;;;22.52;;
37323;SDS011;23205;49.986;18.950;2022-10-16T02:43:09;42.33;;;22.23;;
37323;SDS011;23205;49.986;18.950;2022-10-16T02:48:10;66.60;;;32.17;;
37323;SDS011;23205;49.986;18.950;2022-10-16T02:53:11;83.38;;;39.28;;
37323;SDS011;23205;49.986;18.950;2022-10-16T02:58:12;100.97;;;50.10;;
37323;SDS011;23205;49.986;18.950;2022-10-16T03:03:13;105.05;;;51.60;;
37323;SDS011;23205;49.986;18.950;2022-10-16T03:08:14;117.05;;;54.30;;
37323;SDS011;23205;49.986;18.950;2022-10-16T03:13:15;116.60;;;59.55;;
37323;SDS011;23205;49.986;18.950;2022-10-16T03:18:15;119.68;;;59.40;;
37323;SDS011;23205;49.986;18.950;2022-10-16T03:23:16;141.40;;;81.20;;
37323;SDS011;23205;49.986;18.950;2022-10-16T03:28:17;102.47;;;52.75;;
37323;SDS011;23205;49.986;18.950;2022-10-16T03:33:17;98.47;;;47.05;;
37323;SDS011;23205;49.986;18.950;2022-10-16T03:38:18;75.22;;;37.88;;
37323;SDS011;23205;49.986;18.950;2022-10-16T03:43:19;81.15;;;35.67;;
37323;SDS011;23205;49.986;18.950;2022-10-16T03:48:19;66.82;;;30.45;;
37323;SDS011;23205;49.986;18.950;2022-10-16T03:53:20;42.95;;;19.77;;
37323;SDS011;23205;49.986;18.950;2022-10-16T03:58:21;26.88;;;13.60;;
37323;SDS011;23205;49.986;18.950;2022-10-16T04:03:22;25.92;;;11.68;;
37323;SDS011;23205;49.986;18.950;2022-10-16T04:08:23;34.35;;;16.63;;
37323;SDS011;23205;49.986;18.950;2022-10-16T04:13:23;22.10;;;11.82;;
37323;SDS011;23205;49.986;18.950;2022-10-16T04:18:24;22.75;;;13.20;;
37323;SDS011;23205;49.986;18.950;2022-10-16T04:23:27;21.45;;;11.80;;
37323;SDS011;23205;49.986;18.950;2022-10-16T04:28:27;19.83;;;11.32;;
37323;SDS011;23205;49.986;18.950;2022-10-16T04:33:28;22.50;;;11.95;;
37323;SDS011;23205;49.986;18.950;2022-10-16T04:38:29;32.67;;;16.33;;
37323;SDS011;23205;49.986;18.950;2022-10-16T04:43:30;47.58;;;23.92;;
37323;SDS011;23205;49.986;18.950;2022-10-16T04:48:31;41.60;;;23.13;;
37323;SDS011;23205;49.986;18.950;2022-10-16T04:53:32;49.20;;;27.17;;
37323;SDS011;23205;49.986;18.950;2022-10-16T04:58:34;57.58;;;31.13;;
37323;SDS011;23205;49.986;18.950;2022-10-16T05:03:34;42.47;;;23.55;;
37323;SDS011;23205;49.986;18.950;2022-10-16T05:08:35;41.08;;;23.33;;
37323;SDS011;23205;49.986;18.950;2022-10-16T05:13:36;41.88;;;20.30;;
37323;SDS011;23205;49.986;18.950;2022-10-16T05:18:37;42.33;;;23.25;;
37323;SDS011;23205;49.986;18.950;2022-10-16T05:23:38;32.78;;;19.13;;
37323;SDS011;23205;49.986;18.950;2022-10-16T05:28:38;45.20;;;24.05;;
37323;SDS011;23205;49.986;18.950;2022-10-16T05:33:39;42.67;;;23.65;;
37323;SDS011;23205;49.986;18.950;2022-10-16T05:38:40;41.38;;;23.08;;
37323;SDS011;23205;49.986;18.950;2022-10-16T05:43:40;45.90;;;24.02;;
37323;SDS011;23205;49.986;18.950;2022-10-16T05:48:41;26.55;;;14.38;;
37323;SDS011;23205;49.986;18.950;2022-10-16T05:53:42;25.83;;;12.00;;
37323;SDS011;23205;49.986;18.950;2022-10-16T05:58:44;23.42;;;12.50;;
37323;SDS011;23205;49.986;18.950;2022-10-16T06:03:45;22.30;;;11.32;;
37323;SDS011;23205;49.986;18.950;2022-10-16T06:08:46;26.00;;;14.00;;
37323;SDS011;23205;49.986;18.950;2022-10-16T06:13:49;25.73;;;14.10;;
37323;SDS011;23205;49.986;18.950;2022-10-16T06:18:51;26.42;;;15.60;;
37323;SDS011;23205;49.986;18.950;2022-10-16T06:23:54;18.52;;;9.32;;
37323;SDS011;23205;49.986;18.950;2022-10-16T06:28:56;21.27;;;11.38;;
37323;SDS011;23205;49.986;18.950;2022-10-16T06:33:57;23.67;;;11.55;;
37323;SDS011;23205;49.986;18.950;2022-10-16T06:38:59;22.60;;;11.43;;
37323;SDS011;23205;49.986;18.950;2022-10-16T06:44:00;17.20;;;9.07;;
37323;SDS011;23205;49.986;18.950;2022-10-16T06:49:01;18.80;;;10.05;;
37323;SDS011;23205;49.986;18.950;2022-10-16T06:54:02;20.25;;;10.02;;
37323;SDS011;23205;49.986;18.950;2022-10-16T06:59:03;16.90;;;7.80;;
37323;SDS011;23205;49.986;18.950;2022-10-16T07:04:04;14.07;;;7.68;;
37323;SDS011;23205;49.986;18.950;2022-10-16T07:09:06;15.15;;;7.88;;
37323;SDS011;23205;49.986;18.950;2022-10-16T07:14:18;15.25;;;8.07;;
37323;SDS011;23205;49.986;18.950;2022-10-16T07:19:20;13.15;;;7.10;;
37323;SDS011;23205;49.986;18.950;2022-10-16T07:24:21;14.80;;;7.70;;
37323;SDS011;23205;49.986;18.950;2022-10-16T07:29:21;10.35;;;6.05;;
37323;SDS011;23205;49.986;18.950;2022-10-16T07:34:22;12.32;;;6.10;;
37323;SDS011;23205;49.986;18.950;2022-10-16T07:39:23;13.02;;;6.28;;
37323;SDS011;23205;49.986;18.950;2022-10-16T07:44:24;14.63;;;7.32;;
37323;SDS011;23205;49.986;18.950;2022-10-16T07:49:24;16.80;;;6.80;;
37323;SDS011;23205;49.986;18.950;2022-10-16T07:54:25;12.25;;;5.88;;
37323;SDS011;23205;49.986;18.950;2022-10-16T07:59:28;13.65;;;5.90;;
37323;SDS011;23205;49.986;18.950;2022-10-16T08:04:29;13.93;;;6.25;;
37323;SDS011;23205;49.986;18.950;2022-10-16T08:09:30;11.60;;;6.05;;
37323;SDS011;23205;49.986;18.950;2022-10-16T08:14:30;10.75;;;5.85;;
37323;SDS011;23205;49.986;18.950;2022-10-16T08:19:31;15.27;;;6.75;;
37323;SDS011;23205;49.986;18.950;2022-10-16T08:24:34;14.40;;;6.88;;
37323;SDS011;23205;49.986;18.950;2022-10-16T08:29:36;13.32;;;6.63;;
37323;SDS011;23205;49.986;18.950;2022-10-16T08:34:38;14.23;;;6.32;;
37323;SDS011;23205;49.986;18.950;2022-10-16T08:39:39;9.93;;;5.80;;
37323;SDS011;23205;49.986;18.950;2022-10-16T08:49:59;8.85;;;5.43;;
37323;SDS011;23205;49.986;18.950;2022-10-16T08:55:03;9.80;;;5.13;;
37323;SDS011;23205;49.986;18.950;2022-10-16T09:00:05;11.25;;;5.90;;
37323;SDS011;23205;49.986;18.950;2022-10-16T09:05:34;10.00;;;5.10;;
37323;SDS011;23205;49.986;18.950;2022-10-16T09:21:29;14.07;;;6.28;;
37323;SDS011;23205;49.986;18.950;2022-10-16T09:26:31;10.77;;;5.77;;
37323;SDS011;23205;49.986;18.950;2022-10-16T09:31:32;10.55;;;5.63;;
37323;SDS011;23205;49.986;18.950;2022-10-16T09:36:40;10.15;;;5.18;;
37323;SDS011;23205;49.986;18.950;2022-10-16T09:41:44;11.40;;;5.88;;
37323;SDS011;23205;49.986;18.950;2022-10-16T09:46:45;13.30;;;5.78;;
37323;SDS011;23205;49.986;18.950;2022-10-16T09:51:46;10.23;;;5.60;;
37323;SDS011;23205;49.986;18.950;2022-10-16T09:56:48;12.70;;;6.22;;
37323;SDS011;23205;49.986;18.950;2022-10-16T10:01:54;12.07;;;5.75;;
37323;SDS011;23205;49.986;18.950;2022-10-16T10:06:56;10.02;;;5.32;;
37323;SDS011;23205;49.986;18.950;2022-10-16T10:11:59;12.07;;;5.93;;
37323;SDS011;23205;49.986;18.950;2022-10-16T10:17:26;11.63;;;6.35;;
37323;SDS011;23205;49.986;18.950;2022-10-16T10:27:37;11.77;;;5.22;;
37323;SDS011;23205;49.986;18.950;2022-10-16T10:54:17;9.80;;;5.88;;
37323;SDS011;23205;49.986;18.950;2022-10-16T11:10:03;12.53;;;5.90;;
37323;SDS011;23205;49.986;18.950;2022-10-16T11:15:18;11.32;;;5.80;;
37323;SDS011;23205;49.986;18.950;2022-10-16T11:20:28;10.68;;;5.55;;
37323;SDS011;23205;49.986;18.950;2022-10-16T11:25:50;10.82;;;6.20;;
37323;SDS011;23205;49.986;18.950;2022-10-16T11:46:26;10.38;;;5.75;;
37323;SDS011;23205;49.986;18.950;2022-10-16T11:51:38;9.88;;;5.60;;
37323;SDS011;23205;49.986;18.950;2022-10-16T11:56:42;9.52;;;5.50;;
37323;SDS011;23205;49.986;18.950;2022-10-16T12:01:49;13.32;;;6.28;;
37323;SDS011;23205;49.986;18.950;2022-10-16T12:07:10;9.20;;;5.18;;
37323;SDS011;23205;49.986;18.950;2022-10-16T12:12:23;9.50;;;5.40;;
37323;SDS011;23205;49.986;18.950;2022-10-16T12:22:34;9.90;;;5.28;;
37323;SDS011;23205;49.986;18.950;2022-10-16T12:27:35;10.43;;;6.07;;
37323;SDS011;23205;49.986;18.950;2022-10-16T12:32:37;11.82;;;5.70;;
37323;SDS011;23205;49.986;18.950;2022-10-16T12:37:40;13.73;;;5.93;;
37323;SDS011;23205;49.986;18.950;2022-10-16T12:42:40;11.82;;;6.15;;
37323;SDS011;23205;49.986;18.950;2022-10-16T12:47:48;12.40;;;5.60;;
37323;SDS011;23205;49.986;18.950;2022-10-16T12:52:54;10.68;;;5.82;;
37323;SDS011;23205;49.986;18.950;2022-10-16T13:19:18;13.65;;;7.15;;
37323;SDS011;23205;49.986;18.950;2022-10-16T13:29:32;12.45;;;6.35;;
37323;SDS011;23205;49.986;18.950;2022-10-16T13:34:41;10.85;;;6.65;;
37323;SDS011;23205;49.986;18.950;2022-10-16T13:39:45;11.90;;;7.07;;
37323;SDS011;23205;49.986;18.950;2022-10-16T13:44:47;14.75;;;6.95;;
37323;SDS011;23205;49.986;18.950;2022-10-16T13:50:01;10.73;;;6.18;;
37323;SDS011;23205;49.986;18.950;2022-10-16T13:55:13;15.10;;;6.68;;
37323;SDS011;23205;49.986;18.950;2022-10-16T14:00:20;10.77;;;5.40;;
37323;SDS011;23205;49.986;18.950;2022-10-16T14:05:23;11.73;;;6.25;;
37323;SDS011;23205;49.986;18.950;2022-10-16T14:10:25;10.93;;;5.93;;
37323;SDS011;23205;49.986;18.950;2022-10-16T14:15:31;8.90;;;5.75;;
37323;SDS011;23205;49.986;18.950;2022-10-16T14:20:34;15.70;;;5.90;;
37323;SDS011;23205;49.986;18.950;2022-10-16T14:25:35;10.40;;;6.05;;
37323;SDS011;23205;49.986;18.950;2022-10-16T14:30:36;11.68;;;5.88;;
37323;SDS011;23205;49.986;18.950;2022-10-16T14:35:37;8.32;;;5.78;;
37323;SDS011;23205;49.986;18.950;2022-10-16T14:40:45;13.13;;;6.35;;
37323;SDS011;23205;49.986;18.950;2022-10-16T14:45:55;13.30;;;6.33;;
37323;SDS011;23205;49.986;18.950;2022-10-16T14:51:01;12.38;;;6.50;;
37323;SDS011;23205;49.986;18.950;2022-10-16T14:56:08;10.63;;;6.15;;
37323;SDS011;23205;49.986;18.950;2022-10-16T15:01:20;14.27;;;6.82;;
37323;SDS011;23205;49.986;18.950;2022-10-16T15:06:25;13.95;;;6.45;;
37323;SDS011;23205;49.986;18.950;2022-10-16T15:11:25;15.18;;;7.63;;
37323;SDS011;23205;49.986;18.950;2022-10-16T15:16:26;13.05;;;7.40;;
37323;SDS011;23205;49.986;18.950;2022-10-16T15:21:28;14.68;;;7.60;;
37323;SDS011;23205;49.986;18.950;2022-10-16T15:26:30;12.70;;;7.43;;
37323;SDS011;23205;49.986;18.950;2022-10-16T15:31:31;14.93;;;7.68;;
37323;SDS011;23205;49.986;18.950;2022-10-16T15:36:35;16.42;;;8.73;;
37323;SDS011;23205;49.986;18.950;2022-10-16T15:41:38;14.55;;;8.43;;
37323;SDS011;23205;49.986;18.950;2022-10-16T15:46:38;15.15;;;8.75;;
37323;SDS011;23205;49.986;18.950;2022-10-16T15:51:39;17.42;;;9.02;;
37323;SDS011;23205;49.986;18.950;2022-10-16T15:56:41;15.15;;;8.43;;
37323;SDS011;23205;49.986;18.950;2022-10-16T16:01:42;19.15;;;8.60;;
37323;SDS011;23205;49.986;18.950;2022-10-16T16:06:43;17.80;;;8.43;;
37323;SDS011;23205;49.986;18.950;2022-10-16T16:11:46;16.90;;;8.27;;
37323;SDS011;23205;49.986;18.950;2022-10-16T16:16:47;17.33;;;8.85;;
37323;SDS011;23205;49.986;18.950;2022-10-16T16:21:48;17.10;;;9.02;;
37323;SDS011;23205;49.986;18.950;2022-10-16T16:26:50;16.60;;;8.60;;
37323;SDS011;23205;49.986;18.950;2022-10-16T16:31:51;17.30;;;9.48;;
37323;SDS011;23205;49.986;18.950;2022-10-16T16:36:57;22.27;;;10.57;;
37323;SDS011;23205;49.986;18.950;2022-10-16T16:41:57;24.98;;;12.43;;
37323;SDS011;23205;49.986;18.950;2022-10-16T16:46:58;18.40;;;10.50;;
37323;SDS011;23205;49.986;18.950;2022-10-16T16:51:59;17.73;;;10.02;;
37323;SDS011;23205;49.986;18.950;2022-10-16T16:57:00;17.85;;;8.88;;
37323;SDS011;23205;49.986;18.950;2022-10-16T17:02:01;85.43;;;34.40;;
37323;SDS011;23205;49.986;18.950;2022-10-16T17:07:02;158.32;;;62.53;;
37323;SDS011;23205;49.986;18.950;2022-10-16T17:12:03;121.07;;;50.90;;
37323;SDS011;23205;49.986;18.950;2022-10-16T17:17:04;105.43;;;50.65;;
37323;SDS011;23205;49.986;18.950;2022-10-16T17:22:06;88.45;;;45.38;;
37323;SDS011;23205;49.986;18.950;2022-10-16T17:27:07;76.15;;;41.58;;
37323;SDS011;23205;49.986;18.950;2022-10-16T17:32:09;65.95;;;34.33;;
37323;SDS011;23205;49.986;18.950;2022-10-16T17:37:10;36.88;;;19.38;;
37323;SDS011;23205;49.986;18.950;2022-10-16T17:42:10;30.80;;;16.90;;
37323;SDS011;23205;49.986;18.950;2022-10-16T17:47:11;25.40;;;14.32;;
37323;SDS011;23205;49.986;18.950;2022-10-16T17:52:12;32.30;;;15.00;;
37323;SDS011;23205;49.986;18.950;2022-10-16T17:57:13;33.15;;;17.77;;
37323;SDS011;23205;49.986;18.950;2022-10-16T18:02:14;30.52;;;13.88;;
37323;SDS011;23205;49.986;18.950;2022-10-16T18:07:16;27.90;;;14.88;;
37323;SDS011;23205;49.986;18.950;2022-10-16T18:12:17;25.77;;;14.23;;
37323;SDS011;23205;49.986;18.950;2022-10-16T18:17:17;27.63;;;14.68;;
37323;SDS011;23205;49.986;18.950;2022-10-16T18:22:18;31.35;;;15.13;;
37323;SDS011;23205;49.986;18.950;2022-10-16T18:27:19;31.50;;;16.45;;
37323;SDS011;23205;49.986;18.950;2022-10-16T18:32:20;31.10;;;16.48;;
37323;SDS011;23205;49.986;18.950;2022-10-16T18:37:20;27.08;;;14.00;;
37323;SDS011;23205;49.986;18.950;2022-10-16T18:42:22;29.92;;;16.52;;
37323;SDS011;23205;49.986;18.950;2022-10-16T18:47:23;61.67;;;28.80;;
37323;SDS011;23205;49.986;18.950;2022-10-16T18:52:24;89.18;;;39.75;;
37323;SDS011;23205;49.986;18.950;2022-10-16T18:57:26;76.93;;;37.10;;
37323;SDS011;23205;49.986;18.950;2022-10-16T19:02:29;75.20;;;37.75;;
37323;SDS011;23205;49.986;18.950;2022-10-16T19:07:29;65.63;;;33.13;;
37323;SDS011;23205;49.986;18.950;2022-10-16T19:12:30;51.20;;;27.33;;
37323;SDS011;23205;49.986;18.950;2022-10-16T19:17:31;41.53;;;20.85;;
37323;SDS011;23205;49.986;18.950;2022-10-16T19:22:32;32.58;;;16.48;;
37323;SDS011;23205;49.986;18.950;2022-10-16T19:27:53;37.28;;;18.98;;
37323;SDS011;23205;49.986;18.950;2022-10-16T19:32:54;45.38;;;21.08;;
37323;SDS011;23205;49.986;18.950;2022-10-16T19:37:55;45.33;;;21.30;;
37323;SDS011;23205;49.986;18.950;2022-10-16T19:42:55;29.23;;;16.10;;
37323;SDS011;23205;49.986;18.950;2022-10-16T19:47:56;33.35;;;15.73;;
37323;SDS011;23205;49.986;18.950;2022-10-16T19:52:57;31.13;;;15.00;;
37323;SDS011;23205;49.986;18.950;2022-10-16T19:57:57;25.75;;;13.90;;
37323;SDS011;23205;49.986;18.950;2022-10-16T20:02:58;29.02;;;14.18;;
37323;SDS011;23205;49.986;18.950;2022-10-16T20:08:01;30.20;;;15.80;;
37323;SDS011;23205;49.986;18.950;2022-10-16T20:13:01;48.95;;;21.88;;
37323;SDS011;23205;49.986;18.950;2022-10-16T20:18:02;53.47;;;24.85;;
37323;SDS011;23205;49.986;18.950;2022-10-16T20:23:03;34.70;;;17.52;;
37323;SDS011;23205;49.986;18.950;2022-10-16T20:28:04;32.40;;;17.83;;
37323;SDS011;23205;49.986;18.950;2022-10-16T20:33:06;40.60;;;19.42;;
37323;SDS011;23205;49.986;18.950;2022-10-16T20:38:07;33.00;;;17.77;;
37323;SDS011;23205;49.986;18.950;2022-10-16T20:43:12;33.15;;;16.77;;
37323;SDS011;23205;49.986;18.950;2022-10-16T20:48:15;25.15;;;13.68;;
37323;SDS011;23205;49.986;18.950;2022-10-16T20:53:16;28.15;;;14.13;;
37323;SDS011;23205;49.986;18.950;2022-10-16T20:58:16;27.88;;;13.73;;
37323;SDS011;23205;49.986;18.950;2022-10-16T21:03:17;29.88;;;14.63;;
37323;SDS011;23205;49.986;18.950;2022-10-16T21:08:19;28.50;;;14.02;;
37323;SDS011;23205;49.986;18.950;2022-10-16T21:13:19;35.80;;;16.77;;
37323;SDS011;23205;49.986;18.950;2022-10-16T21:18:20;31.52;;;13.65;;
37323;SDS011;23205;49.986;18.950;2022-10-16T21:23:21;28.70;;;14.52;;
37323;SDS011;23205;49.986;18.950;2022-10-16T21:28:21;28.63;;;13.82;;
37323;SDS011;23205;49.986;18.950;2022-10-16T21:33:22;76.78;;;31.55;;
37323;SDS011;23205;49.986;18.950;2022-10-16T21:38:24;61.65;;;26.33;;
37323;SDS011;23205;49.986;18.950;2022-10-16T21:43:25;41.40;;;18.48;;
37323;SDS011;23205;49.986;18.950;2022-10-16T21:48:26;74.60;;;26.20;;
37323;SDS011;23205;49.986;18.950;2022-10-16T21:53:26;62.78;;;25.00;;
37323;SDS011;23205;49.986;18.950;2022-10-16T21:58:29;57.22;;;27.83;;
37323;SDS011;23205;49.986;18.950;2022-10-16T22:03:30;58.63;;;27.55;;
37323;SDS011;23205;49.986;18.950;2022-10-16T22:08:31;55.97;;;29.35;;
37323;SDS011;23205;49.986;18.950;2022-10-16T22:13:33;91.85;;;42.38;;
37323;SDS011;23205;49.986;18.950;2022-10-16T22:18:34;72.97;;;34.00;;
37323;SDS011;23205;49.986;18.950;2022-10-16T22:23:36;67.05;;;31.50;;
37323;SDS011;23205;49.986;18.950;2022-10-16T22:28:38;73.35;;;34.25;;
37323;SDS011;23205;49.986;18.950;2022-10-16T22:33:39;71.45;;;35.55;;
37323;SDS011;23205;49.986;18.950;2022-10-16T22:38:40;71.03;;;33.63;;
37323;SDS011;23205;49.986;18.950;2022-10-16T22:43:45;71.45;;;35.53;;
37323;SDS011;23205;49.986;18.950;2022-10-16T22:48:47;88.10;;;46.88;;
37323;SDS011;23205;49.986;18.950;2022-10-16T22:53:48;78.35;;;40.72;;
37323;SDS011;23205;49.986;18.950;2022-10-16T22:58:49;82.28;;;41.90;;
37323;SDS011;23205;49.986;18.950;2022-10-16T23:03:50;128.90;;;71.10;;
37323;SDS011;23205;49.986;18.950;2022-10-16T23:08:54;76.18;;;40.80;;
37323;SDS011;23205;49.986;18.950;2022-10-16T23:13:57;82.13;;;42.25;;
37323;SDS011;23205;49.986;18.950;2022-10-16T23:18:58;86.85;;;44.13;;
37323;SDS011;23205;49.986;18.950;2022-10-16T23:23:59;124.80;;;58.28;;
37323;SDS011;23205;49.986;18.950;2022-10-16T23:29:00;103.32;;;50.55;;
37323;SDS011;23205;49.986;18.950;2022-10-16T23:34:01;82.40;;;41.80;;
37323;SDS011;23205;49.986;18.950;2022-10-16T23:39:01;80.28;;;40.40;;
37323;SDS011;23205;49.986;18.950;2022-10-16T23:44:02;89.22;;;44.60;;
37323;SDS011;23205;49.986;18.950;2022-10-16T23:49:03;89.93;;;45.45;;
37323;SDS011;23205;49.986;18.950;2022-10-16T23:54:04;76.90;;;40.92;;
37323;SDS011;23205;49.986;18.950;2022-10-16T23:59:04;84.53;;;41.97;;
